createdAt,value
2016-05-09T00:00:30.981Z,1015.58
2016-05-09T00:01:31.015Z,1015.55
2016-05-09T00:02:31.035Z,1015.55
2016-05-09T00:03:31.052Z,1015.57
2016-05-09T00:04:31.071Z,1015.53
2016-05-09T00:05:31.089Z,1015.53
2016-05-09T00:06:31.123Z,1015.48
2016-05-09T00:07:31.142Z,1015.52
2016-05-09T00:08:31.160Z,1015.45
2016-05-09T00:09:31.193Z,1015.41
2016-05-09T00:10:31.212Z,1015.41
2016-05-09T00:12:31.248Z,1015.4
2016-05-09T00:13:31.283Z,1015.41
2016-05-09T00:14:31.301Z,1015.45
2016-05-09T00:15:31.319Z,1015.52
2016-05-09T00:16:31.337Z,1015.51
2016-05-09T00:17:31.355Z,1015.54
2016-05-09T00:18:31.389Z,1015.54
2016-05-09T00:19:31.408Z,1015.54
2016-05-09T00:20:31.427Z,1015.55
2016-05-09T00:21:31.445Z,1015.59
2016-05-09T00:22:31.478Z,1015.55
2016-05-09T00:23:31.497Z,1015.58
2016-05-09T00:24:31.515Z,1015.53
2016-05-09T00:25:31.533Z,1015.53
2016-05-09T00:26:31.567Z,1015.55
2016-05-09T00:28:31.604Z,1015.53
2016-05-09T00:29:31.622Z,1015.55
2016-05-09T00:30:31.641Z,1015.53
2016-05-09T00:31:31.674Z,1015.58
2016-05-09T00:32:31.693Z,1015.54
2016-05-09T00:33:31.712Z,1015.55
2016-05-09T00:34:31.729Z,1015.47
2016-05-09T00:35:31.763Z,1015.51
2016-05-09T00:36:31.782Z,1015.46
2016-05-09T00:37:31.815Z,1015.51
2016-05-09T00:38:31.818Z,1015.51
2016-05-09T00:39:31.853Z,1015.46
2016-05-09T00:40:31.871Z,1015.48
2016-05-09T00:41:31.904Z,1015.48
2016-05-09T00:42:31.907Z,1015.44
2016-05-09T00:44:31.960Z,1015.41
2016-05-09T00:45:31.977Z,1015.43
2016-05-09T00:46:31.997Z,1015.37
2016-05-09T00:47:32.014Z,1015.37
2016-05-09T00:48:32.048Z,1015.34
2016-05-09T00:49:32.066Z,1015.32
2016-05-09T00:50:32.086Z,1015.33
2016-05-09T00:51:32.103Z,1015.35
2016-05-09T00:52:32.138Z,1015.34
2016-05-09T00:53:32.155Z,1015.35
2016-05-09T00:54:32.174Z,1015.36
2016-05-09T00:55:32.192Z,1015.38
2016-05-09T00:56:32.226Z,1015.38
2016-05-09T00:57:32.244Z,1015.38
2016-05-09T00:58:32.263Z,1015.4
2016-05-09T01:00:32.299Z,1015.43
2016-05-09T01:01:32.333Z,1015.44
2016-05-09T01:02:32.352Z,1015.45
2016-05-09T01:03:32.370Z,1015.44
2016-05-09T01:04:32.388Z,1015.45
2016-05-09T01:05:32.423Z,1015.47
2016-05-09T01:06:32.440Z,1015.44
2016-05-09T01:07:32.459Z,1015.47
2016-05-09T01:08:32.476Z,1015.48
2016-05-09T01:09:32.496Z,1015.51
2016-05-09T01:10:32.530Z,1015.49
2016-05-09T01:11:32.548Z,1015.47
2016-05-09T01:12:32.566Z,1015.49
2016-05-09T01:13:32.584Z,1015.5
2016-05-09T01:15:32.637Z,1015.51
2016-05-09T01:16:32.656Z,1015.52
2016-05-09T01:17:32.689Z,1015.49
2016-05-09T01:18:32.708Z,1015.49
2016-05-09T01:19:32.725Z,1015.51
2016-05-09T01:20:32.744Z,1015.46
2016-05-09T01:21:32.777Z,1015.51
2016-05-09T01:22:32.797Z,1015.5
2016-05-09T01:23:32.814Z,1015.48
2016-05-09T01:24:32.833Z,1015.46
2016-05-09T01:25:32.851Z,1015.43
2016-05-09T01:26:32.885Z,1015.49
2016-05-09T01:27:32.903Z,1015.45
2016-05-09T01:28:32.922Z,1015.47
2016-05-09T01:29:32.940Z,1015.44
2016-05-09T01:30:32.974Z,1015.49
2016-05-09T01:31:32.992Z,1015.44
2016-05-09T01:32:33.010Z,1015.42
2016-05-09T01:33:33.029Z,1015.42
2016-05-09T01:34:33.047Z,1015.42
2016-05-09T01:35:33.081Z,1015.45
2016-05-09T01:36:33.099Z,1015.45
2016-05-09T01:37:33.117Z,1015.44
2016-05-09T01:38:33.137Z,1015.43
2016-05-09T01:39:33.171Z,1015.45
2016-05-09T01:40:33.188Z,1015.48
2016-05-09T01:41:33.207Z,1015.49
2016-05-09T01:42:33.225Z,1015.51
2016-05-09T01:43:33.258Z,1015.47
2016-05-09T01:44:33.278Z,1015.48
2016-05-09T01:45:33.295Z,1015.5
2016-05-09T01:47:33.332Z,1015.46
2016-05-09T01:48:33.366Z,1015.49
2016-05-09T01:49:33.384Z,1015.56
2016-05-09T01:50:33.402Z,1015.49
2016-05-09T01:51:33.422Z,1015.49
2016-05-09T01:52:33.455Z,1015.53
2016-05-09T01:53:33.473Z,1015.56
2016-05-09T01:54:33.491Z,1015.57
2016-05-09T01:55:33.510Z,1015.58
2016-05-09T01:56:33.528Z,1015.58
2016-05-09T01:57:33.563Z,1015.62
2016-05-09T01:58:33.580Z,1015.58
2016-05-09T01:59:33.599Z,1015.61
2016-05-09T02:00:33.616Z,1015.62
2016-05-09T02:01:33.651Z,1015.63
2016-05-09T02:03:33.688Z,1015.64
2016-05-09T02:04:33.707Z,1015.62
2016-05-09T02:05:33.740Z,1015.6
2016-05-09T02:06:33.757Z,1015.63
2016-05-09T02:07:33.776Z,1015.6
2016-05-09T02:08:33.796Z,1015.64
2016-05-09T02:09:33.813Z,1015.63
2016-05-09T02:10:33.848Z,1015.61
2016-05-09T02:11:33.865Z,1015.63
2016-05-09T02:12:33.884Z,1015.64
2016-05-09T02:13:33.901Z,1015.63
2016-05-09T02:14:33.937Z,1015.62
2016-05-09T02:15:33.954Z,1015.59
2016-05-09T02:16:33.973Z,1015.63
2016-05-09T02:17:33.991Z,1015.64
2016-05-09T02:19:34.042Z,1015.62
2016-05-09T02:20:34.061Z,1015.61
2016-05-09T02:21:34.080Z,1015.64
2016-05-09T02:22:34.098Z,1015.66
2016-05-09T02:23:34.123Z,1015.62
2016-05-09T02:24:34.141Z,1015.63
2016-05-09T02:25:34.175Z,1015.61
2016-05-09T02:26:34.194Z,1015.63
2016-05-09T02:27:34.213Z,1015.65
2016-05-09T02:28:34.230Z,1015.61
2016-05-09T02:29:34.248Z,1015.7
2016-05-09T02:30:34.267Z,1015.69
2016-05-09T02:31:34.301Z,1015.67
2016-05-09T02:32:34.320Z,1015.68
2016-05-09T02:33:34.338Z,1015.68
2016-05-09T02:35:34.390Z,1015.68
2016-05-09T02:36:34.408Z,1015.68
2016-05-09T02:37:34.426Z,1015.69
2016-05-09T02:38:34.445Z,1015.64
2016-05-09T02:39:34.479Z,1015.65
2016-05-09T02:40:34.497Z,1015.66
2016-05-09T02:41:34.515Z,1015.67
2016-05-09T02:42:34.534Z,1015.66
2016-05-09T02:43:34.567Z,1015.67
2016-05-09T02:44:34.586Z,1015.64
2016-05-09T02:45:34.605Z,1015.64
2016-05-09T02:46:34.622Z,1015.71
2016-05-09T02:47:34.641Z,1015.7
2016-05-09T02:48:34.675Z,1015.71
2016-05-09T02:50:34.711Z,1015.73
2016-05-09T02:51:34.730Z,1015.7
2016-05-09T02:52:34.748Z,1015.73
2016-05-09T02:53:34.782Z,1015.7
2016-05-09T02:54:34.799Z,1015.7
2016-05-09T02:55:34.819Z,1015.7
2016-05-09T02:56:34.837Z,1015.75
2016-05-09T02:57:34.871Z,1015.72
2016-05-09T02:58:34.889Z,1015.71
2016-05-09T02:59:34.908Z,1015.72
2016-05-09T03:00:34.926Z,1015.69
2016-05-09T03:01:34.944Z,1015.68
2016-05-09T03:02:34.978Z,1015.69
2016-05-09T03:03:34.996Z,1015.69
2016-05-09T03:04:35.014Z,1015.7
2016-05-09T03:05:35.033Z,1015.7
2016-05-09T03:06:35.051Z,1015.69
2016-05-09T03:07:35.085Z,1015.69
2016-05-09T03:08:35.103Z,1015.65
2016-05-09T03:09:35.123Z,1015.66
2016-05-09T03:10:35.140Z,1015.69
2016-05-09T03:11:35.158Z,1015.63
2016-05-09T03:12:35.192Z,1015.65
2016-05-09T03:13:35.211Z,1015.66
2016-05-09T03:14:35.229Z,1015.67
2016-05-09T03:15:35.263Z,1015.65
2016-05-09T03:16:35.281Z,1015.67
2016-05-09T03:17:35.300Z,1015.72
2016-05-09T03:18:35.318Z,1015.63
2016-05-09T03:19:35.336Z,1015.69
2016-05-09T03:20:35.355Z,1015.71
2016-05-09T03:22:35.407Z,1015.69
2016-05-09T03:23:35.425Z,1015.67
2016-05-09T03:24:35.443Z,1015.72
2016-05-09T03:25:35.462Z,1015.75
2016-05-09T03:26:35.496Z,1015.74
2016-05-09T03:27:35.514Z,1015.75
2016-05-09T03:28:35.533Z,1015.77
2016-05-09T03:29:35.551Z,1015.77
2016-05-09T03:30:35.585Z,1015.77
2016-05-09T03:31:35.603Z,1015.78
2016-05-09T03:32:35.621Z,1015.78
2016-05-09T03:33:35.639Z,1015.75
2016-05-09T03:34:35.674Z,1015.77
2016-05-09T03:35:35.692Z,1015.73
2016-05-09T03:36:35.710Z,1015.75
2016-05-09T03:38:35.763Z,1015.78
2016-05-09T03:39:35.765Z,1015.78
2016-05-09T03:40:35.799Z,1015.78
2016-05-09T03:41:35.817Z,1015.77
2016-05-09T03:42:35.851Z,1015.77
2016-05-09T03:43:35.853Z,1015.79
2016-05-09T03:44:35.889Z,1015.77
2016-05-09T03:45:35.906Z,1015.77
2016-05-09T03:46:35.925Z,1015.71
2016-05-09T03:47:35.942Z,1015.74
2016-05-09T03:48:35.977Z,1015.79
2016-05-09T03:49:35.995Z,1015.73
2016-05-09T03:50:36.013Z,1015.77
2016-05-09T03:51:36.047Z,1015.73
2016-05-09T03:52:36.050Z,1015.77
2016-05-09T03:54:36.102Z,1015.78
2016-05-09T03:55:36.121Z,1015.8
2016-05-09T03:56:36.139Z,1015.78
2016-05-09T03:57:36.157Z,1015.76
2016-05-09T03:58:36.191Z,1015.73
2016-05-09T03:59:36.209Z,1015.72
2016-05-09T04:00:36.228Z,1015.75
2016-05-09T04:01:36.246Z,1015.72
2016-05-09T04:02:36.265Z,1015.76
2016-05-09T04:03:36.282Z,1015.79
2016-05-09T04:04:36.317Z,1015.77
2016-05-09T04:05:36.334Z,1015.8
2016-05-09T04:06:36.354Z,1015.82
2016-05-09T04:07:36.371Z,1015.82
2016-05-09T04:08:36.406Z,1015.78
2016-05-09T04:10:36.442Z,1015.83
2016-05-09T04:11:36.460Z,1015.8
2016-05-09T04:12:36.495Z,1015.81
2016-05-09T04:13:36.513Z,1015.8
2016-05-09T04:14:36.531Z,1015.79
2016-05-09T04:15:36.549Z,1015.8
2016-05-09T04:16:36.567Z,1015.74
2016-05-09T04:17:36.602Z,1015.8
2016-05-09T04:18:36.620Z,1015.72
2016-05-09T04:19:36.639Z,1015.8
2016-05-09T04:20:36.656Z,1015.81
2016-05-09T04:21:36.690Z,1015.79
2016-05-09T04:22:36.708Z,1015.78
2016-05-09T04:23:36.727Z,1015.78
2016-05-09T04:25:36.780Z,1015.83
2016-05-09T04:26:36.797Z,1015.84
2016-05-09T04:27:36.816Z,1015.82
2016-05-09T04:28:36.835Z,1015.83
2016-05-09T04:29:36.852Z,1015.85
2016-05-09T04:30:36.887Z,1015.88
2016-05-09T04:31:36.905Z,1015.88
2016-05-09T04:32:36.923Z,1015.89
2016-05-09T04:33:36.941Z,1015.9
2016-05-09T04:34:36.976Z,1015.91
2016-05-09T04:35:36.993Z,1015.93
2016-05-09T04:36:37.012Z,1015.91
2016-05-09T04:37:37.031Z,1015.95
2016-05-09T04:38:37.065Z,1015.89
2016-05-09T04:39:37.082Z,1015.92
2016-05-09T04:40:37.101Z,1015.94
2016-05-09T04:41:37.119Z,1015.97
2016-05-09T04:42:37.137Z,1016.02
2016-05-09T04:43:37.172Z,1015.99
2016-05-09T04:44:37.190Z,1016.01
2016-05-09T04:45:37.209Z,1016
2016-05-09T04:46:37.242Z,1016.06
2016-05-09T04:47:37.260Z,1016.01
2016-05-09T04:48:37.278Z,1016.04
2016-05-09T04:49:37.298Z,1016.09
2016-05-09T04:50:37.330Z,1016.16
2016-05-09T04:51:37.350Z,1016.16
2016-05-09T04:52:37.367Z,1016.16
2016-05-09T04:53:37.402Z,1016.16
2016-05-09T04:54:37.419Z,1016.21
2016-05-09T04:55:37.439Z,1016.25
2016-05-09T04:57:37.491Z,1016.25
2016-05-09T04:58:37.508Z,1016.25
2016-05-09T04:59:37.886Z,1016.29
2016-05-09T05:00:37.560Z,1016.26
2016-05-09T05:01:37.596Z,1016.28
2016-05-09T05:02:37.613Z,1016.3
2016-05-09T05:03:37.632Z,1016.35
2016-05-09T05:04:37.665Z,1016.39
2016-05-09T05:05:37.684Z,1016.35
2016-05-09T05:06:37.718Z,1016.35
2016-05-09T05:07:37.737Z,1016.39
2016-05-09T05:08:37.770Z,1016.35
2016-05-09T05:09:37.788Z,1016.35
2016-05-09T05:10:37.823Z,1016.37
2016-05-09T05:11:37.840Z,1016.33
2016-05-09T05:13:37.909Z,1016.37
2016-05-09T05:14:37.942Z,1016.33
2016-05-09T05:15:37.961Z,1016.37
2016-05-09T05:16:37.978Z,1016.39
2016-05-09T05:17:38.014Z,1016.37
2016-05-09T05:18:38.031Z,1016.34
2016-05-09T05:19:38.065Z,1016.4
2016-05-09T05:20:38.099Z,1016.35
2016-05-09T05:21:38.117Z,1016.37
2016-05-09T05:22:38.151Z,1016.32
2016-05-09T05:23:38.186Z,1016.34
2016-05-09T05:24:38.204Z,1016.3
2016-05-09T05:25:38.238Z,1016.32
2016-05-09T05:26:38.271Z,1016.34
2016-05-09T05:27:38.290Z,1016.32
2016-05-09T05:29:38.358Z,1016.25
2016-05-09T05:30:38.392Z,1016.27
2016-05-09T05:31:38.410Z,1016.26
2016-05-09T05:32:38.443Z,1016.29
2016-05-09T05:33:38.477Z,1016.31
2016-05-09T05:34:38.512Z,1016.27
2016-05-09T05:35:38.546Z,1016.26
2016-05-09T05:36:38.565Z,1016.3
2016-05-09T05:37:38.598Z,1016.3
2016-05-09T05:38:38.632Z,1016.31
2016-05-09T05:39:38.665Z,1016.3
2016-05-09T05:40:38.684Z,1016.31
2016-05-09T05:41:38.718Z,1016.27
2016-05-09T05:42:38.752Z,1016.32
2016-05-09T05:43:38.786Z,1016.34
2016-05-09T05:45:38.854Z,1016.33
2016-05-09T05:46:38.873Z,1016.37
2016-05-09T05:47:38.906Z,1016.39
2016-05-09T05:48:38.940Z,1016.39
2016-05-09T05:49:38.974Z,1016.41
2016-05-09T05:50:39.008Z,1016.47
2016-05-09T05:51:39.041Z,1016.43
2016-05-09T05:52:39.060Z,1016.48
2016-05-09T05:53:39.095Z,1016.44
2016-05-09T05:54:39.128Z,1016.43
2016-05-09T05:55:39.162Z,1016.49
2016-05-09T05:56:39.196Z,1016.46
2016-05-09T05:57:39.230Z,1016.49
2016-05-09T05:58:39.263Z,1016.44
2016-05-09T06:00:39.359Z,1016.48
2016-05-09T06:01:39.437Z,1016.51
2016-05-09T06:02:39.890Z,1016.47
2016-05-09T06:03:39.593Z,1016.5
2016-05-09T06:04:39.671Z,1016.47
2016-05-09T06:05:39.720Z,1016.47
2016-05-09T06:06:39.771Z,1016.5
2016-05-09T06:07:39.819Z,1016.52
2016-05-09T06:08:39.869Z,1016.57
2016-05-09T06:09:39.919Z,1016.54
2016-05-09T06:10:39.959Z,1016.56
2016-05-09T06:11:39.982Z,1016.53
2016-05-09T06:12:40.022Z,1016.56
2016-05-09T06:13:40.068Z,1016.59
2016-05-09T06:14:40.107Z,1016.59
2016-05-09T06:15:40.143Z,1016.65
2016-05-09T06:16:40.178Z,1016.6
2016-05-09T06:17:40.215Z,1016.6
2016-05-09T06:18:40.251Z,1016.58
2016-05-09T06:19:40.286Z,1016.59
2016-05-09T06:20:40.320Z,1016.62
2016-05-09T06:21:40.340Z,1016.64
2016-05-09T06:22:40.374Z,1016.62
2016-05-09T06:23:40.408Z,1016.63
2016-05-09T06:24:40.444Z,1016.65
2016-05-09T06:25:40.478Z,1016.66
2016-05-09T06:26:40.512Z,1016.67
2016-05-09T06:27:40.546Z,1016.64
2016-05-09T06:28:40.580Z,1016.64
2016-05-09T06:29:40.614Z,1016.63
2016-05-09T06:30:40.648Z,1016.67
2016-05-09T06:32:40.715Z,1016.69
2016-05-09T06:33:40.749Z,1016.69
2016-05-09T06:34:40.783Z,1016.71
2016-05-09T06:35:40.817Z,1016.71
2016-05-09T06:36:40.852Z,1016.73
2016-05-09T06:37:40.885Z,1016.73
2016-05-09T06:38:40.919Z,1016.77
2016-05-09T06:39:40.953Z,1016.7
2016-05-09T06:40:40.987Z,1016.76
2016-05-09T06:41:41.021Z,1016.75
2016-05-09T06:42:41.055Z,1016.74
2016-05-09T06:43:41.229Z,1016.72
2016-05-09T06:44:41.124Z,1016.68
2016-05-09T06:45:41.157Z,1016.75
2016-05-09T06:46:41.191Z,1016.67
2016-05-09T06:48:41.259Z,1016.73
2016-05-09T06:49:41.293Z,1016.69
2016-05-09T06:50:41.326Z,1016.73
2016-05-09T06:51:41.360Z,1016.71
2016-05-09T06:52:41.394Z,1016.73
2016-05-09T06:53:41.428Z,1016.69
2016-05-09T06:54:41.462Z,1016.68
2016-05-09T06:55:41.496Z,1016.72
2016-05-09T06:56:41.531Z,1016.75
2016-05-09T06:57:41.564Z,1016.82
2016-05-09T06:58:41.598Z,1016.76
2016-05-09T06:59:41.632Z,1016.72
2016-05-09T07:00:41.666Z,1016.77
2016-05-09T07:01:41.716Z,1016.78
2016-05-09T07:02:41.733Z,1016.74
2016-05-09T07:04:41.817Z,1016.76
2016-05-09T07:05:41.851Z,1016.69
2016-05-09T07:06:41.886Z,1016.74
2016-05-09T07:07:41.919Z,1016.79
2016-05-09T07:08:41.953Z,1016.8
2016-05-09T07:09:41.987Z,1016.77
2016-05-09T07:10:42.021Z,1016.77
2016-05-09T07:11:42.055Z,1016.81
2016-05-09T07:12:42.089Z,1016.75
2016-05-09T07:13:42.436Z,1016.8
2016-05-09T07:14:42.157Z,1016.78
2016-05-09T07:15:42.191Z,1016.83
2016-05-09T07:16:42.224Z,1016.78
2016-05-09T07:17:42.259Z,1016.75
2016-05-09T07:18:42.308Z,1016.8
2016-05-09T07:20:42.376Z,1016.77
2016-05-09T07:21:42.410Z,1016.76
2016-05-09T07:22:42.443Z,1016.79
2016-05-09T07:23:42.478Z,1016.77
2016-05-09T07:24:42.512Z,1016.79
2016-05-09T07:25:42.546Z,1016.84
2016-05-09T07:26:42.595Z,1016.83
2016-05-09T07:27:42.614Z,1016.85
2016-05-09T07:28:42.648Z,1016.79
2016-05-09T07:29:42.682Z,1016.85
2016-05-09T07:30:42.715Z,1016.82
2016-05-09T07:31:42.764Z,1016.84
2016-05-09T07:32:42.800Z,1016.84
2016-05-09T07:33:42.833Z,1016.82
2016-05-09T07:35:42.901Z,1016.92
2016-05-09T07:36:42.935Z,1016.79
2016-05-09T07:37:42.984Z,1016.8
2016-05-09T07:38:43.003Z,1016.79
2016-05-09T07:39:43.036Z,1016.76
2016-05-09T07:40:43.071Z,1016.77
2016-05-09T07:41:43.120Z,1016.76
2016-05-09T07:42:43.154Z,1016.86
2016-05-09T07:43:43.188Z,1016.84
2016-05-09T07:44:43.222Z,1016.75
2016-05-09T07:45:43.255Z,1016.75
2016-05-09T07:46:43.290Z,1016.8
2016-05-09T07:47:43.324Z,1016.77
2016-05-09T07:48:43.357Z,1016.79
2016-05-09T07:49:43.392Z,1016.86
2016-05-09T07:50:43.441Z,1016.86
2016-05-09T07:51:43.465Z,1016.77
2016-05-09T07:52:43.515Z,1016.73
2016-05-09T07:53:43.548Z,1016.72
2016-05-09T07:54:43.585Z,1016.72
2016-05-09T07:55:43.610Z,1016.76
2016-05-09T07:56:43.644Z,1016.73
2016-05-09T07:57:43.693Z,1016.75
2016-05-09T07:58:43.712Z,1016.73
2016-05-09T07:59:43.761Z,1016.83
2016-05-09T08:00:43.795Z,1016.75
2016-05-09T08:01:43.829Z,1016.73
2016-05-09T08:02:43.863Z,1016.77
2016-05-09T08:03:43.896Z,1016.74
2016-05-09T08:04:44.337Z,1016.78
2016-05-09T08:05:44.184Z,1016.73
2016-05-09T08:07:48.735Z,1016.87
2016-05-09T08:08:52.254Z,1016.81
2016-05-09T08:09:52.585Z,1016.83
2016-05-09T08:10:44.151Z,1016.76
2016-05-09T08:11:48.418Z,1016.82
2016-05-09T08:12:44.218Z,1016.72
2016-05-09T08:13:44.330Z,1016.75
2016-05-09T08:14:44.286Z,1016.77
2016-05-09T08:15:44.320Z,1016.84
2016-05-09T08:16:44.354Z,1016.84
2016-05-09T08:17:44.404Z,1016.76
2016-05-09T08:18:44.437Z,1016.76
2016-05-09T08:19:44.471Z,1016.83
2016-05-09T08:20:44.506Z,1016.78
2016-05-09T08:21:44.539Z,1016.75
2016-05-09T08:23:44.623Z,1016.7
2016-05-09T08:24:44.657Z,1016.74
2016-05-09T08:25:44.691Z,1016.73
2016-05-09T08:26:44.725Z,1016.75
2016-05-09T08:27:44.758Z,1016.76
2016-05-09T08:28:44.792Z,1016.76
2016-05-09T08:29:44.827Z,1016.77
2016-05-09T08:30:44.860Z,1016.73
2016-05-09T08:31:44.910Z,1016.71
2016-05-09T08:32:44.944Z,1016.68
2016-05-09T08:33:44.977Z,1016.71
2016-05-09T08:34:45.012Z,1016.72
2016-05-09T08:35:45.046Z,1016.73
2016-05-09T08:36:45.080Z,1016.71
2016-05-09T08:37:45.129Z,1016.7
2016-05-09T08:39:45.196Z,1016.76
2016-05-09T08:40:45.232Z,1016.74
2016-05-09T08:41:45.265Z,1016.71
2016-05-09T08:42:45.299Z,1016.66
2016-05-09T08:43:45.348Z,1016.69
2016-05-09T08:44:45.382Z,1016.69
2016-05-09T08:45:45.417Z,1016.69
2016-05-09T08:46:45.450Z,1016.71
2016-05-09T08:47:45.484Z,1016.75
2016-05-09T08:48:45.534Z,1016.7
2016-05-09T08:49:45.567Z,1016.71
2016-05-09T08:50:45.601Z,1016.7
2016-05-09T08:51:45.636Z,1016.63
2016-05-09T08:52:45.670Z,1016.67
2016-05-09T08:53:45.703Z,1016.64
2016-05-09T08:55:45.787Z,1016.57
2016-05-09T08:56:45.821Z,1016.62
2016-05-09T08:57:45.855Z,1016.65
2016-05-09T08:58:45.889Z,1016.67
2016-05-09T08:59:45.938Z,1016.6
2016-05-09T09:00:45.957Z,1016.61
2016-05-09T09:01:46.006Z,1016.58
2016-05-09T09:02:46.040Z,1016.63
2016-05-09T09:03:46.074Z,1016.63
2016-05-09T09:04:46.108Z,1016.61
2016-05-09T09:05:46.141Z,1016.57
2016-05-09T09:06:46.191Z,1016.52
2016-05-09T09:07:46.225Z,1016.56
2016-05-09T09:08:46.260Z,1016.56
2016-05-09T09:10:46.342Z,1016.64
2016-05-09T09:11:46.376Z,1016.59
2016-05-09T09:12:46.411Z,1016.57
2016-05-09T09:13:46.445Z,1016.62
2016-05-09T09:14:46.479Z,1016.6
2016-05-09T09:15:46.513Z,1016.59
2016-05-09T09:16:46.562Z,1016.56
2016-05-09T09:17:46.596Z,1016.55
2016-05-09T09:18:46.631Z,1016.55
2016-05-09T09:19:46.664Z,1016.56
2016-05-09T09:20:46.698Z,1016.62
2016-05-09T09:21:46.747Z,1016.6
2016-05-09T09:22:46.781Z,1016.5
2016-05-09T09:23:46.831Z,1016.5
2016-05-09T09:24:46.850Z,1016.46
2016-05-09T09:25:46.883Z,1016.47
2016-05-09T09:26:46.933Z,1016.39
2016-05-09T09:27:46.967Z,1016.45
2016-05-09T09:28:47.000Z,1016.47
2016-05-09T09:29:47.035Z,1016.48
2016-05-09T09:30:47.068Z,1016.48
2016-05-09T09:31:47.119Z,1016.47
2016-05-09T09:32:47.152Z,1016.61
2016-05-09T09:33:47.186Z,1016.47
2016-05-09T09:34:47.220Z,1016.46
2016-05-09T09:35:47.254Z,1016.45
2016-05-09T09:36:47.288Z,1016.42
2016-05-09T09:37:47.322Z,1016.39
2016-05-09T09:38:47.371Z,1016.4
2016-05-09T09:39:47.405Z,1016.38
2016-05-09T09:40:47.440Z,1016.38
2016-05-09T09:42:47.507Z,1016.37
2016-05-09T09:43:47.931Z,1016.39
2016-05-09T09:44:47.591Z,1016.34
2016-05-09T09:45:47.624Z,1016.34
2016-05-09T09:46:47.658Z,1016.38
2016-05-09T09:47:47.693Z,1016.42
2016-05-09T09:48:47.726Z,1016.4
2016-05-09T09:49:47.776Z,1016.34
2016-05-09T09:50:47.809Z,1016.28
2016-05-09T09:51:47.844Z,1016.33
2016-05-09T09:52:47.878Z,1016.33
2016-05-09T09:53:47.912Z,1016.21
2016-05-09T09:54:47.946Z,1016.35
2016-05-09T09:55:47.980Z,1016.21
2016-05-09T09:56:48.029Z,1016.26
2016-05-09T09:58:48.097Z,1016.3
2016-05-09T09:59:48.130Z,1016.18
2016-05-09T10:00:48.180Z,1016.19
2016-05-09T10:01:48.200Z,1016.34
2016-05-09T10:02:48.249Z,1016.2
2016-05-09T10:03:48.283Z,1016.21
2016-05-09T10:04:48.317Z,1016.12
2016-05-09T10:05:48.350Z,1016.16
2016-05-09T10:06:48.384Z,1016.13
2016-05-09T10:07:48.418Z,1016.38
2016-05-09T10:08:48.452Z,1016.19
2016-05-09T10:09:48.485Z,1016.2
2016-05-09T10:10:48.520Z,1016.16
2016-05-09T10:11:48.569Z,1016.21
2016-05-09T10:12:48.604Z,1016.15
2016-05-09T10:14:48.671Z,1016.1
2016-05-09T10:15:48.705Z,1016.03
2016-05-09T10:16:48.740Z,1016
2016-05-09T10:17:48.773Z,1016.02
2016-05-09T10:18:48.807Z,1016
2016-05-09T10:19:48.841Z,1016.02
2016-05-09T10:20:48.875Z,1016.1
2016-05-09T10:21:48.909Z,1015.87
2016-05-09T10:22:48.959Z,1015.93
2016-05-09T10:23:48.992Z,1016.02
2016-05-09T10:24:49.026Z,1015.89
2016-05-09T10:25:49.061Z,1015.95
2016-05-09T10:26:49.094Z,1015.83
2016-05-09T10:27:49.128Z,1015.85
2016-05-09T10:28:49.162Z,1015.89
2016-05-09T10:30:49.230Z,1015.89
2016-05-09T10:31:49.280Z,1015.93
2016-05-09T10:32:49.329Z,1015.94
2016-05-09T10:33:49.348Z,1015.85
2016-05-09T10:34:49.381Z,1015.83
2016-05-09T10:35:49.416Z,1015.67
2016-05-09T10:36:49.449Z,1015.97
2016-05-09T10:37:49.483Z,1015.84
2016-05-09T10:38:49.516Z,1015.84
2016-05-09T10:39:49.551Z,1015.85
2016-05-09T10:40:49.601Z,1015.89
2016-05-09T10:41:49.635Z,1015.67
2016-05-09T10:42:49.669Z,1015.71
2016-05-09T10:43:49.702Z,1015.87
2016-05-09T10:45:49.770Z,1015.77
2016-05-09T10:46:49.835Z,1015.68
2016-05-09T10:47:49.838Z,1015.8
2016-05-09T10:48:49.888Z,1015.75
2016-05-09T10:49:49.921Z,1015.79
2016-05-09T10:50:49.956Z,1015.98
2016-05-09T10:51:49.989Z,1015.77
2016-05-09T10:52:50.023Z,1015.8
2016-05-09T10:53:50.057Z,1015.9
2016-05-09T10:54:50.092Z,1015.76
2016-05-09T10:55:50.126Z,1015.75
2016-05-09T10:56:50.159Z,1015.74
2016-05-09T10:57:50.209Z,1015.59
2016-05-09T10:58:50.242Z,1015.76
2016-05-09T10:59:50.839Z,1015.8
2016-05-09T11:00:50.311Z,1015.67
2016-05-09T11:01:50.344Z,1015.67
2016-05-09T11:02:50.378Z,1015.61
2016-05-09T11:03:50.413Z,1015.62
2016-05-09T11:04:50.446Z,1015.61
2016-05-09T11:05:50.480Z,1015.55
2016-05-09T11:06:50.514Z,1015.48
2016-05-09T11:07:50.549Z,1015.47
2016-05-09T11:08:50.582Z,1015.51
2016-05-09T11:09:50.616Z,1015.43
2016-05-09T11:10:50.665Z,1015.38
2016-05-09T11:11:50.699Z,1015.53
2016-05-09T11:12:50.734Z,1015.47
2016-05-09T11:13:50.768Z,1015.48
2016-05-09T11:14:50.974Z,1015.48
2016-05-09T11:15:50.835Z,1015.42
2016-05-09T11:17:50.903Z,1015.4
2016-05-09T11:18:50.937Z,1015.37
2016-05-09T11:19:50.971Z,1015.34
2016-05-09T11:20:51.004Z,1015.39
2016-05-09T11:21:51.039Z,1015.37
2016-05-09T11:22:51.073Z,1015.51
2016-05-09T11:23:51.092Z,1015.31
2016-05-09T11:24:51.141Z,1015.24
2016-05-09T11:25:51.159Z,1015.3
2016-05-09T11:26:51.193Z,1015.33
2016-05-09T11:27:51.228Z,1015.31
2016-05-09T11:28:51.261Z,1015.18
2016-05-09T11:29:51.294Z,1015.15
2016-05-09T11:30:51.329Z,1015.16
2016-05-09T11:31:51.566Z,1015.16
2016-05-09T11:33:51.430Z,1015.1
2016-05-09T11:34:51.464Z,1015.09
2016-05-09T11:35:51.499Z,1015.09
2016-05-09T11:36:51.533Z,1015.06
2016-05-09T11:37:51.551Z,1015.05
2016-05-09T11:38:51.585Z,1015.18
2016-05-09T11:39:51.619Z,1015.23
2016-05-09T11:40:51.653Z,1015.07
2016-05-09T11:41:51.686Z,1015.16
2016-05-09T11:42:51.721Z,1015.08
2016-05-09T11:43:51.755Z,1015.19
2016-05-09T11:44:51.773Z,1015.1
2016-05-09T11:45:51.807Z,1015.1
2016-05-09T11:46:51.840Z,1015.22
2016-05-09T11:47:51.875Z,1015.23
2016-05-09T11:49:51.926Z,1015.08
2016-05-09T11:50:51.960Z,1015.11
2016-05-09T11:51:51.995Z,1015.09
2016-05-09T11:52:52.013Z,1015.08
2016-05-09T11:53:52.063Z,1015.08
2016-05-09T11:54:52.081Z,1015.03
2016-05-09T11:55:52.114Z,1015.01
2016-05-09T11:56:52.133Z,1015
2016-05-09T11:57:52.168Z,1015.08
2016-05-09T11:58:52.201Z,1015.01
2016-05-09T11:59:52.234Z,1015.03
2016-05-09T12:00:52.253Z,1014.99
2016-05-09T12:01:52.287Z,1014.96
2016-05-09T12:02:52.322Z,1014.99
2016-05-09T12:03:52.356Z,1014.98
2016-05-09T12:05:52.407Z,1014.98
2016-05-09T12:06:52.425Z,1015
2016-05-09T12:07:52.461Z,1015.08
2016-05-09T12:08:52.494Z,1014.96
2016-05-09T12:09:52.527Z,1014.86
2016-05-09T12:10:52.546Z,1014.93
2016-05-09T12:11:52.579Z,1014.83
2016-05-09T12:12:52.599Z,1014.92
2016-05-09T12:13:52.632Z,1014.9
2016-05-09T12:14:52.682Z,1015.01
2016-05-09T12:15:52.684Z,1014.92
2016-05-09T12:16:52.718Z,1014.96
2016-05-09T12:17:52.752Z,1014.79
2016-05-09T12:18:52.771Z,1014.78
2016-05-09T12:20:52.838Z,1014.94
2016-05-09T12:21:52.873Z,1014.88
2016-05-09T12:22:52.891Z,1014.82
2016-05-09T12:23:52.909Z,1014.91
2016-05-09T12:24:52.942Z,1014.8
2016-05-09T12:25:52.976Z,1014.84
2016-05-09T12:26:52.995Z,1014.81
2016-05-09T12:27:53.029Z,1014.76
2016-05-09T12:28:53.063Z,1014.86
2016-05-09T12:29:53.081Z,1014.86
2016-05-09T12:30:53.115Z,1014.62
2016-05-09T12:31:53.150Z,1014.9
2016-05-09T12:32:53.168Z,1014.75
2016-05-09T12:33:53.201Z,1014.7
2016-05-09T12:34:53.220Z,1014.78
2016-05-09T12:35:53.253Z,1014.75
2016-05-09T12:36:53.288Z,1014.73
2016-05-09T12:37:53.306Z,1014.71
2016-05-09T12:38:53.339Z,1014.7
2016-05-09T12:39:53.374Z,1014.69
2016-05-09T12:40:53.392Z,1014.75
2016-05-09T12:41:53.427Z,1014.7
2016-05-09T12:42:53.444Z,1014.68
2016-05-09T12:43:53.477Z,1014.73
2016-05-09T12:44:53.966Z,1014.66
2016-05-09T12:45:53.531Z,1014.73
2016-05-09T12:46:53.565Z,1014.66
2016-05-09T12:47:53.583Z,1014.79
2016-05-09T12:48:53.616Z,1014.56